createdAt,value
2022-11-13T00:01:13.396Z,11.02
2022-11-13T00:03:39.821Z,10.55
2022-11-13T00:06:06.662Z,11.32
2022-11-13T00:08:33.686Z,10.15
2022-11-13T00:11:05.224Z,9.68
2022-11-13T00:13:31.642Z,10.93
2022-11-13T00:16:10.844Z,10.77
2022-11-13T00:18:37.768Z,10.02
2022-11-13T00:21:11.128Z,11.02
2022-11-13T00:23:37.959Z,11.05
2022-11-13T00:26:08.843Z,10.82
2022-11-13T00:28:35.425Z,10.27
2022-11-13T00:31:03.245Z,10.38
2022-11-13T00:33:54.902Z,11.27
2022-11-13T00:36:25.930Z,10.38
2022-11-13T00:38:53.265Z,9.82
2022-11-13T00:41:20.037Z,10.55
2022-11-13T00:43:46.667Z,8.98
2022-11-13T00:46:13.097Z,10.70
2022-11-13T00:48:39.779Z,9.80
2022-11-13T00:51:06.258Z,9.77
2022-11-13T00:53:33.225Z,10.95
2022-11-13T00:55:59.562Z,9.57
2022-11-13T00:58:26.659Z,10.52
2022-11-13T01:00:53.633Z,8.88
2022-11-13T01:03:20.040Z,9.25
2022-11-13T01:05:46.926Z,8.07
2022-11-13T01:08:15.065Z,7.90
2022-11-13T01:10:52.101Z,8.88
2022-11-13T01:13:20.069Z,8.48
2022-11-13T01:15:46.678Z,8.13
2022-11-13T01:18:13.491Z,7.07
2022-11-13T01:20:40.234Z,7.65
2022-11-13T01:23:08.633Z,8.18
2022-11-13T01:25:35.975Z,8.95
2022-11-13T01:28:02.305Z,7.88
2022-11-13T01:30:29.134Z,8.18
2022-11-13T01:32:55.656Z,7.32
2022-11-13T01:35:22.065Z,7.40
2022-11-13T01:37:48.749Z,7.57
2022-11-13T01:40:15.367Z,8.93
2022-11-13T01:42:42.489Z,7.15
2022-11-13T01:45:46.579Z,7.30
2022-11-13T01:48:13.342Z,9.18
2022-11-13T01:50:39.804Z,8.88
2022-11-13T01:53:07.256Z,7.90
2022-11-13T01:55:34.159Z,8.02
2022-11-13T01:58:02.859Z,10.45
2022-11-13T02:00:29.335Z,10.45
2022-11-13T02:02:55.737Z,8.95
2022-11-13T02:05:22.141Z,8.43
2022-11-13T02:07:48.993Z,8.38
2022-11-13T02:10:15.935Z,7.30
2022-11-13T02:12:46.649Z,7.75
2022-11-13T02:15:13.939Z,7.65
2022-11-13T02:17:51.962Z,7.97
2022-11-13T02:20:45.089Z,8.35
2022-11-13T02:23:25.215Z,9.25
2022-11-13T02:25:54.296Z,9.68
2022-11-13T02:28:20.942Z,8.45
2022-11-13T02:30:47.353Z,8.63
2022-11-13T02:33:28.394Z,8.10
2022-11-13T02:35:54.800Z,8.23
2022-11-13T02:38:21.364Z,9.40
2022-11-13T02:40:48.017Z,9.23
2022-11-13T02:43:14.429Z,8.80
2022-11-13T02:45:41.416Z,8.68
2022-11-13T02:48:08.265Z,9.02
2022-11-13T02:50:35.943Z,9.00
2022-11-13T02:53:03.487Z,8.68
2022-11-13T02:55:29.946Z,8.13
2022-11-13T02:57:56.863Z,8.90
2022-11-13T03:00:23.716Z,8.68
2022-11-13T03:02:50.604Z,10.57
2022-11-13T03:05:17.134Z,10.57
2022-11-13T03:07:43.813Z,8.93
2022-11-13T03:10:12.046Z,8.82
2022-11-13T03:12:39.124Z,8.98
2022-11-13T03:15:06.847Z,7.45
2022-11-13T03:17:34.633Z,9.60
2022-11-13T03:20:01.084Z,7.90
2022-11-13T03:22:27.906Z,8.90
2022-11-13T03:24:54.367Z,8.05
2022-11-13T03:27:21.502Z,8.73
2022-11-13T03:29:48.169Z,6.97
2022-11-13T03:32:14.582Z,8.40
2022-11-13T03:34:40.995Z,7.95
2022-11-13T03:37:07.520Z,8.30
2022-11-13T03:39:34.200Z,7.88
2022-11-13T03:42:00.818Z,7.10
2022-11-13T03:44:27.128Z,7.53
2022-11-13T03:46:53.487Z,7.30
2022-11-13T03:49:19.993Z,7.97
2022-11-13T03:51:46.831Z,7.20
2022-11-13T03:54:13.252Z,7.15
2022-11-13T03:56:39.800Z,7.90
2022-11-13T03:59:06.478Z,7.95
2022-11-13T04:01:33.254Z,6.70
2022-11-13T04:03:59.650Z,6.47
2022-11-13T04:06:26.070Z,7.45
2022-11-13T04:08:53.870Z,6.63
2022-11-13T04:11:20.214Z,6.75
2022-11-13T04:13:46.896Z,7.28
2022-11-13T04:16:13.383Z,7.05
2022-11-13T04:18:40.056Z,6.85
2022-11-13T04:21:07.009Z,6.22
2022-11-13T04:23:33.742Z,5.63
2022-11-13T04:26:00.131Z,6.25
2022-11-13T04:28:26.934Z,7.07
2022-11-13T04:30:54.961Z,6.88
2022-11-13T04:33:21.474Z,6.35
2022-11-13T04:35:47.898Z,7.05
2022-11-13T04:38:14.878Z,6.60
2022-11-13T04:40:42.075Z,7.15
2022-11-13T04:43:08.839Z,6.70
2022-11-13T04:45:36.347Z,6.50
2022-11-13T04:48:03.149Z,6.43
2022-11-13T04:50:29.526Z,6.72
2022-11-13T04:52:56.140Z,6.30
2022-11-13T04:55:22.721Z,7.35
2022-11-13T04:57:49.089Z,6.32
2022-11-13T05:00:15.754Z,6.40
2022-11-13T05:02:42.146Z,7.25
2022-11-13T05:05:09.175Z,6.10
2022-11-13T05:07:35.591Z,7.55
2022-11-13T05:10:02.071Z,6.43
2022-11-13T05:12:28.532Z,6.60
2022-11-13T05:14:55.212Z,6.68
2022-11-13T05:17:21.541Z,5.60
2022-11-13T05:19:47.956Z,6.22
2022-11-13T05:22:14.356Z,5.78
2022-11-13T05:24:40.681Z,5.88
2022-11-13T05:27:08.773Z,6.03
2022-11-13T05:29:37.964Z,6.28
2022-11-13T05:32:04.495Z,5.78
2022-11-13T05:34:31.198Z,6.65
2022-11-13T05:36:57.674Z,6.03
2022-11-13T05:39:24.098Z,5.68
2022-11-13T05:41:50.421Z,5.43
2022-11-13T05:44:16.830Z,5.10
2022-11-13T05:46:43.249Z,6.32
2022-11-13T05:49:10.832Z,5.68
2022-11-13T05:51:37.160Z,4.80
2022-11-13T05:54:04.121Z,5.68
2022-11-13T05:56:33.544Z,7.25
2022-11-13T05:59:01.259Z,6.45
2022-11-13T06:01:30.769Z,6.75
2022-11-13T06:03:59.335Z,5.32
2022-11-13T06:06:27.493Z,5.63
2022-11-13T06:08:55.880Z,5.95
2022-11-13T06:11:25.208Z,6.50
2022-11-13T06:13:52.379Z,6.55
2022-11-13T06:16:28.703Z,6.30
2022-11-13T06:18:57.329Z,6.90
2022-11-13T06:21:26.341Z,6.45
2022-11-13T06:23:52.922Z,5.28
2022-11-13T06:26:25.846Z,6.18
2022-11-13T06:28:52.764Z,5.30
2022-11-13T06:31:28.990Z,5.70
2022-11-13T06:33:57.122Z,5.45
2022-11-13T06:36:26.946Z,6.13
2022-11-13T06:38:53.502Z,7.07
2022-11-13T06:41:23.057Z,6.32
2022-11-13T06:43:50.102Z,5.63
2022-11-13T06:46:22.824Z,6.63
2022-11-13T06:48:49.588Z,6.80
2022-11-13T06:51:18.979Z,7.43
2022-11-13T06:53:45.473Z,7.10
2022-11-13T06:56:12.808Z,7.30
2022-11-13T06:58:39.760Z,6.47
2022-11-13T07:01:11.610Z,6.75
2022-11-13T07:03:38.419Z,6.47
2022-11-13T07:06:07.817Z,6.00
2022-11-13T07:08:35.002Z,7.07
2022-11-13T07:11:02.119Z,6.07
2022-11-13T07:13:29.170Z,5.90
2022-11-13T07:16:09.312Z,5.95
2022-11-13T07:18:42.294Z,6.72
2022-11-13T07:21:11.131Z,6.85
2022-11-13T07:23:38.580Z,7.05
2022-11-13T07:26:05.364Z,5.88
2022-11-13T07:28:31.784Z,7.70
2022-11-13T07:30:59.004Z,5.75
2022-11-13T07:33:26.192Z,6.47
2022-11-13T07:35:56.960Z,6.22
2022-11-13T07:38:23.949Z,6.30
2022-11-13T07:40:51.060Z,5.88
2022-11-13T07:43:17.794Z,6.35
2022-11-13T07:45:44.909Z,5.47
2022-11-13T07:48:11.545Z,6.00
2022-11-13T07:50:40.178Z,3.58
2022-11-13T07:53:08.599Z,4.80
2022-11-13T07:55:36.424Z,4.75
2022-11-13T07:58:04.462Z,4.82
2022-11-13T08:00:32.919Z,4.95
2022-11-13T08:03:05.056Z,3.53
2022-11-13T08:05:31.790Z,4.93
2022-11-13T08:07:58.240Z,4.22
2022-11-13T08:10:25.037Z,4.63
2022-11-13T08:13:02.636Z,4.32
2022-11-13T08:15:30.664Z,4.82
2022-11-13T08:17:58.865Z,4.97
2022-11-13T08:20:27.522Z,6.05
2022-11-13T08:22:57.895Z,5.60
2022-11-13T08:25:24.754Z,5.72
2022-11-13T08:27:53.548Z,5.97
2022-11-13T08:30:20.238Z,5.95
2022-11-13T08:32:50.108Z,6.38
2022-11-13T08:35:19.547Z,5.60
2022-11-13T08:37:46.618Z,5.68
2022-11-13T08:40:12.958Z,6.13
2022-11-13T08:42:39.575Z,5.97
2022-11-13T08:45:06.550Z,5.60
2022-11-13T08:47:33.232Z,5.05
2022-11-13T08:49:59.564Z,6.13
2022-11-13T08:52:25.999Z,6.63
2022-11-13T08:54:52.529Z,6.55
2022-11-13T08:57:19.082Z,5.40
2022-11-13T08:59:45.450Z,5.80
2022-11-13T09:02:16.111Z,5.60
2022-11-13T09:04:42.892Z,5.88
2022-11-13T09:07:09.873Z,6.40
2022-11-13T09:09:36.359Z,5.88
2022-11-13T09:12:03.148Z,5.40
2022-11-13T09:14:29.593Z,5.95
2022-11-13T09:16:55.990Z,5.05
2022-11-13T09:19:22.483Z,5.03
2022-11-13T09:21:48.945Z,6.00
2022-11-13T09:24:15.398Z,6.15
2022-11-13T09:26:41.812Z,5.28
2022-11-13T09:29:08.176Z,5.68
2022-11-13T09:31:35.020Z,6.07
2022-11-13T09:34:01.748Z,6.45
2022-11-13T09:36:28.232Z,6.78
2022-11-13T09:38:54.733Z,7.75
2022-11-13T09:41:25.993Z,7.78
2022-11-13T09:43:59.540Z,7.32
2022-11-13T09:46:44.183Z,7.53
2022-11-13T09:49:33.052Z,8.80
2022-11-13T09:52:06.793Z,8.13
2022-11-13T09:54:33.754Z,8.27
2022-11-13T09:57:37.471Z,8.88
2022-11-13T10:00:16.493Z,9.23
2022-11-13T10:03:01.412Z,8.07
2022-11-13T10:05:32.382Z,7.87
2022-11-13T10:08:24.855Z,9.23
2022-11-13T10:11:16.498Z,7.90
2022-11-13T10:14:31.471Z,7.53
2022-11-13T10:17:11.384Z,7.57
2022-11-13T10:19:53.172Z,7.45
2022-11-13T10:22:34.937Z,9.02
2022-11-13T10:25:22.968Z,8.82
2022-11-13T10:28:04.552Z,9.07
2022-11-13T10:30:42.680Z,6.75
2022-11-13T10:33:16.686Z,9.13
2022-11-13T10:35:59.425Z,6.90
2022-11-13T10:38:38.920Z,9.20
2022-11-13T10:41:16.278Z,8.80
2022-11-13T10:43:55.638Z,7.70
2022-11-13T10:46:25.267Z,8.20
2022-11-13T10:48:52.185Z,8.00
2022-11-13T10:51:24.719Z,7.72
2022-11-13T10:53:51.987Z,7.75
2022-11-13T10:56:27.800Z,7.07
2022-11-13T10:59:15.637Z,7.05
2022-11-13T11:01:44.267Z,7.28
2022-11-13T11:04:23.755Z,7.68
2022-11-13T11:07:19.599Z,7.32
2022-11-13T11:09:38.571Z,7.60
2022-11-13T11:12:04.940Z,7.43
2022-11-13T11:14:38.020Z,6.63
2022-11-13T11:17:06.156Z,6.75
2022-11-13T11:19:38.396Z,6.20
2022-11-13T11:22:19.587Z,7.60
2022-11-13T11:24:56.706Z,8.32
2022-11-13T11:27:33.156Z,7.72
2022-11-13T11:30:31.645Z,8.88
2022-11-13T11:33:15.901Z,6.78
2022-11-13T11:36:03.962Z,7.95
2022-11-13T11:38:40.501Z,8.20
2022-11-13T11:41:17.094Z,8.45
2022-11-13T11:43:48.659Z,7.68
2022-11-13T11:46:25.148Z,8.82
2022-11-13T11:48:52.627Z,7.93
2022-11-13T11:51:52.545Z,7.95
2022-11-13T11:54:27.302Z,8.90
2022-11-13T11:56:59.271Z,8.13
2022-11-13T11:59:58.008Z,8.05
2022-11-13T12:02:45.603Z,7.60
2022-11-13T12:05:44.205Z,9.15
2022-11-13T12:08:38.288Z,7.45
2022-11-13T12:11:28.554Z,7.63
2022-11-13T12:14:31.662Z,8.25
2022-11-13T12:17:29.538Z,8.13
2022-11-13T12:20:14.717Z,7.40
2022-11-13T12:23:11.777Z,8.38
2022-11-13T12:26:04.030Z,8.13
2022-11-13T12:28:56.918Z,8.63
2022-11-13T12:31:40.340Z,7.20
2022-11-13T12:34:27.901Z,7.10
2022-11-13T12:36:55.571Z,8.02
2022-11-13T12:39:50.065Z,7.30
2022-11-13T12:42:21.528Z,7.10
2022-11-13T12:45:06.602Z,7.10
2022-11-13T12:47:35.225Z,7.43
2022-11-13T12:50:21.986Z,7.15
2022-11-13T12:53:07.253Z,6.78
2022-11-13T12:55:36.115Z,7.55
2022-11-13T12:58:32.966Z,6.80
2022-11-13T13:01:13.786Z,7.72
2022-11-13T13:04:07.036Z,7.60
2022-11-13T13:06:39.327Z,6.85
2022-11-13T13:09:48.078Z,7.50
2022-11-13T13:12:49.334Z,7.55
2022-11-13T13:15:21.652Z,7.03
2022-11-13T13:17:48.054Z,7.30
2022-11-13T13:20:20.849Z,8.25
2022-11-13T13:22:59.519Z,6.97
2022-11-13T13:25:34.765Z,8.82
2022-11-13T13:28:13.249Z,7.28
2022-11-13T13:31:14.330Z,7.07
2022-11-13T13:34:05.369Z,8.18
2022-11-13T13:37:02.513Z,8.90
2022-11-13T13:39:58.597Z,8.05
2022-11-13T13:43:03.850Z,8.23
2022-11-13T13:46:07.937Z,9.40
2022-11-13T13:48:39.853Z,8.63
2022-11-13T13:51:17.112Z,9.00
2022-11-13T13:53:43.997Z,7.28
2022-11-13T13:56:13.704Z,8.68
2022-11-13T13:58:41.010Z,7.57
2022-11-13T14:01:18.705Z,9.25
2022-11-13T14:03:46.024Z,9.32
2022-11-13T14:06:24.368Z,9.48
2022-11-13T14:08:50.779Z,9.20
2022-11-13T14:11:17.461Z,9.65
2022-11-13T14:13:44.146Z,9.68
2022-11-13T14:16:10.508Z,10.88
2022-11-13T14:18:37.178Z,10.15
2022-11-13T14:21:10.731Z,10.75
2022-11-13T14:23:50.170Z,10.10
2022-11-13T14:26:17.436Z,10.80
2022-11-13T14:28:56.663Z,10.57
2022-11-13T14:31:29.207Z,11.55
2022-11-13T14:33:57.264Z,10.07
2022-11-13T14:36:29.294Z,9.77
2022-11-13T14:38:56.434Z,9.50
2022-11-13T14:41:34.474Z,11.50
2022-11-13T14:44:02.255Z,11.50
2022-11-13T14:46:35.583Z,12.73
2022-11-13T14:49:02.197Z,12.85
2022-11-13T14:51:33.432Z,14.23
2022-11-13T14:54:08.788Z,13.88
2022-11-13T14:56:41.741Z,12.30
2022-11-13T14:59:19.565Z,11.32
2022-11-13T15:01:57.128Z,11.52
2022-11-13T15:04:26.961Z,10.82
2022-11-13T15:06:57.117Z,13.68
2022-11-13T15:09:25.310Z,13.07
2022-11-13T15:11:52.254Z,12.40
2022-11-13T15:14:20.908Z,11.98
2022-11-13T15:16:49.121Z,11.27
2022-11-13T15:19:24.405Z,10.65
2022-11-13T15:22:20.454Z,9.95
2022-11-13T15:24:37.444Z,9.85
2022-11-13T15:27:04.235Z,10.85
2022-11-13T15:29:30.622Z,10.75
2022-11-13T15:31:57.244Z,10.35
2022-11-13T15:34:24.419Z,9.90
2022-11-13T15:36:51.208Z,10.13
2022-11-13T15:39:23.386Z,11.23
2022-11-13T15:41:50.346Z,11.32
2022-11-13T15:44:16.774Z,11.25
2022-11-13T15:46:43.375Z,11.45
2022-11-13T15:49:09.729Z,10.32
2022-11-13T15:51:44.431Z,11.23
2022-11-13T15:54:37.845Z,10.10
2022-11-13T15:57:04.766Z,10.93
2022-11-13T15:59:31.178Z,10.05
2022-11-13T16:01:58.379Z,8.40
2022-11-13T16:04:30.143Z,8.95
2022-11-13T16:07:27.915Z,8.82
2022-11-13T16:09:54.395Z,8.95
2022-11-13T16:12:21.117Z,8.88
2022-11-13T16:14:47.484Z,9.95
2022-11-13T16:17:16.199Z,9.45
2022-11-13T16:19:43.454Z,9.02
2022-11-13T16:22:18.419Z,8.38
2022-11-13T16:24:44.864Z,9.95
2022-11-13T16:27:16.255Z,9.23
2022-11-13T16:29:43.347Z,7.47
2022-11-13T16:32:14.501Z,10.55
2022-11-13T16:34:41.291Z,9.52
2022-11-13T16:37:25.699Z,10.15
2022-11-13T16:39:52.126Z,9.88
2022-11-13T16:42:18.771Z,9.60
2022-11-13T16:44:45.277Z,10.93
2022-11-13T16:47:22.701Z,10.57
2022-11-13T16:49:49.259Z,9.68
2022-11-13T16:52:16.270Z,11.00
2022-11-13T16:54:42.808Z,10.38
2022-11-13T16:57:13.802Z,8.88
2022-11-13T16:59:40.838Z,9.85
2022-11-13T17:02:18.542Z,11.65
2022-11-13T17:04:45.088Z,10.63
2022-11-13T17:07:13.501Z,10.82
2022-11-13T17:09:45.133Z,11.05
2022-11-13T17:12:11.766Z,12.60
2022-11-13T17:14:38.889Z,11.60
2022-11-13T17:17:07.264Z,12.52
2022-11-13T17:19:33.811Z,13.02
2022-11-13T17:22:00.233Z,13.68
2022-11-13T17:24:26.895Z,12.73
2022-11-13T17:26:53.697Z,12.85
2022-11-13T17:29:20.374Z,13.40
2022-11-13T17:31:46.816Z,12.55
2022-11-13T17:34:13.294Z,12.70
2022-11-13T17:36:39.688Z,13.02
2022-11-13T17:39:06.144Z,12.50
2022-11-13T17:41:32.483Z,12.98
2022-11-13T17:44:01.262Z,11.98
2022-11-13T17:46:28.242Z,15.63
2022-11-13T17:48:54.656Z,14.68
2022-11-13T17:51:21.377Z,15.35
2022-11-13T17:53:47.788Z,13.73
2022-11-13T17:56:14.600Z,15.30
2022-11-13T17:58:43.153Z,14.82
2022-11-13T18:01:27.445Z,15.30
2022-11-13T18:03:55.943Z,14.05
2022-11-13T18:06:22.700Z,16.02
2022-11-13T18:08:49.588Z,16.58
2022-11-13T18:11:24.415Z,17.15
2022-11-13T18:13:51.940Z,16.33
2022-11-13T18:16:26.484Z,18.08
2022-11-13T18:18:55.201Z,18.63
2022-11-13T18:21:27.568Z,16.98
2022-11-13T18:24:20.577Z,15.43
2022-11-13T18:26:47.271Z,16.38
2022-11-13T18:29:14.295Z,15.82
2022-11-13T18:31:40.669Z,16.27
2022-11-13T18:34:07.386Z,16.52
2022-11-13T18:36:34.291Z,14.73
2022-11-13T18:39:01.032Z,14.43
2022-11-13T18:41:27.411Z,16.08
2022-11-13T18:43:53.881Z,14.70
2022-11-13T18:46:21.801Z,14.07
2022-11-13T18:48:48.984Z,14.30
2022-11-13T18:51:21.202Z,15.40
2022-11-13T18:53:49.248Z,14.88
2022-11-13T18:56:27.571Z,14.63
2022-11-13T18:58:56.088Z,13.68
2022-11-13T19:01:28.789Z,14.80
2022-11-13T19:06:44.082Z,11.95
2022-11-13T19:09:15.973Z,14.27
2022-11-13T19:11:42.465Z,13.43
2022-11-13T19:14:09.550Z,13.43
2022-11-13T19:16:38.246Z,15.27
2022-11-13T19:19:18.825Z,14.93
2022-11-13T19:21:46.232Z,15.15
2022-11-13T19:24:12.636Z,14.05
2022-11-13T19:26:39.082Z,15.88
2022-11-13T19:29:05.529Z,16.10
2022-11-13T19:31:31.978Z,16.58
2022-11-13T19:34:00.408Z,16.83
2022-11-13T19:36:29.149Z,17.27
2022-11-13T19:38:56.069Z,16.60
2022-11-13T19:41:22.946Z,17.63
2022-11-13T19:43:49.727Z,16.65
2022-11-13T19:46:17.674Z,15.38
2022-11-13T19:48:45.958Z,14.23
2022-11-13T19:51:14.716Z,13.57
2022-11-13T19:53:41.845Z,14.88
2022-11-13T19:56:09.033Z,13.25
2022-11-13T19:58:35.711Z,13.85
2022-11-13T20:01:09.524Z,12.07
2022-11-13T20:03:36.244Z,13.63
2022-11-13T20:06:02.878Z,13.65
2022-11-13T20:08:30.366Z,14.82
2022-11-13T20:11:08.925Z,13.23
2022-11-13T20:13:36.556Z,12.95
2022-11-13T20:16:04.119Z,13.00
2022-11-13T20:18:30.775Z,12.27
2022-11-13T20:20:57.820Z,14.23
2022-11-13T20:23:24.433Z,13.77
2022-11-13T20:25:55.763Z,13.23
2022-11-13T20:28:22.386Z,12.38
2022-11-13T20:30:49.651Z,15.02
2022-11-13T20:33:21.192Z,15.15
2022-11-13T20:35:55.383Z,14.63
2022-11-13T20:38:21.753Z,15.30
2022-11-13T20:40:48.138Z,13.75
2022-11-13T20:43:14.551Z,14.48
2022-11-13T20:45:40.939Z,16.00
2022-11-13T20:48:07.572Z,15.98
2022-11-13T20:50:37.452Z,15.93
2022-11-13T20:53:05.448Z,15.07
2022-11-13T20:55:31.956Z,13.88
2022-11-13T20:57:58.389Z,13.35
2022-11-13T21:00:24.834Z,14.23
2022-11-13T21:02:52.112Z,14.02
2022-11-13T21:05:18.464Z,13.93
2022-11-13T21:07:44.894Z,14.00
2022-11-13T21:10:11.658Z,14.10
2022-11-13T21:12:37.973Z,13.13
2022-11-13T21:15:04.742Z,11.55
2022-11-13T21:17:31.159Z,12.50
2022-11-13T21:19:57.893Z,12.70
2022-11-13T21:22:24.610Z,12.77
2022-11-13T21:24:50.928Z,13.07
2022-11-13T21:27:17.374Z,13.77
2022-11-13T21:29:44.072Z,12.38
2022-11-13T21:32:10.785Z,13.90
2022-11-13T21:34:37.448Z,12.68
2022-11-13T21:37:03.898Z,11.82
2022-11-13T21:39:30.643Z,13.82
2022-11-13T21:41:56.987Z,12.85
2022-11-13T21:44:23.415Z,12.80
2022-11-13T21:46:49.760Z,12.65
2022-11-13T21:49:16.124Z,11.57
2022-11-13T21:51:43.242Z,12.07
2022-11-13T21:54:10.406Z,12.40
2022-11-13T21:56:38.422Z,12.07
2022-11-13T21:59:06.043Z,12.10
2022-11-13T22:01:37.784Z,12.02
2022-11-13T22:04:04.772Z,10.15
2022-11-13T22:06:33.373Z,11.05
2022-11-13T22:09:19.749Z,11.88
2022-11-13T22:11:46.415Z,11.45
2022-11-13T22:14:12.873Z,11.65
2022-11-13T22:16:41.796Z,10.00
2022-11-13T22:19:16.917Z,12.07
2022-11-13T22:21:44.589Z,9.90
2022-11-13T22:24:12.233Z,10.60
2022-11-13T22:26:41.292Z,9.63
2022-11-13T22:29:08.466Z,9.48
2022-11-13T22:31:35.991Z,8.00
2022-11-13T22:34:03.309Z,8.93
2022-11-13T22:36:32.500Z,10.30
2022-11-13T22:38:59.727Z,9.23
2022-11-13T22:41:28.432Z,10.27
2022-11-13T22:43:58.470Z,9.18
2022-11-13T22:46:26.850Z,10.40
2022-11-13T22:48:54.656Z,10.15
2022-11-13T22:51:23.529Z,9.88
2022-11-13T22:53:55.169Z,9.55
2022-11-13T22:56:23.544Z,9.50
2022-11-13T22:58:50.209Z,10.30
2022-11-13T23:01:19.667Z,8.73
2022-11-13T23:03:47.927Z,10.82
2022-11-13T23:06:18.569Z,10.70
2022-11-13T23:08:45.236Z,9.55
2022-11-13T23:11:13.180Z,10.55
2022-11-13T23:13:44.196Z,9.60
2022-11-13T23:16:11.630Z,8.65
2022-11-13T23:18:38.341Z,8.48
2022-11-13T23:21:05.926Z,8.00
2022-11-13T23:23:33.380Z,7.63
2022-11-13T23:26:00.138Z,9.98
2022-11-13T23:28:27.740Z,7.80
2022-11-13T23:30:54.848Z,8.38
2022-11-13T23:33:22.045Z,9.20
2022-11-13T23:35:48.945Z,8.43
2022-11-13T23:38:15.473Z,7.50
2022-11-13T23:40:41.918Z,7.82
2022-11-13T23:43:08.547Z,6.75
2022-11-13T23:45:35.145Z,9.18
2022-11-13T23:48:01.945Z,8.93
2022-11-13T23:50:28.853Z,8.75
2022-11-13T23:52:55.205Z,8.60
2022-11-13T23:55:21.921Z,8.40
2022-11-13T23:57:55.322Z,8.80
